Portada
METAR-TAF:

METAR-TAF

Aeroports :

Saint-Brieuc, França

latitud: 48-32N, longitud: 002-51W, altitud: 138 m

Observació

L'informe es va fer fa 38 minuts, a les 07:30 UTC
Vent 12 kt del Oest
Temperatura 20°C
Humitat 83%
Pressió 1011 hPa
Visibilitat 10 km o més
Escasses núvols a una alçada de 1600 ft
Cel ennuvolat a una alçada de 2800 ft
Cel ennuvolat a una alçada de 3800 ft

METAR: LFRT 200730Z AUTO 26012KT 9999 FEW016 BKN028 BKN038 20/17 Q1011

Hora: 10:08 (08:08 UTC)


TAF: manca

Observacions i pronòstics meteorològics de més de 4000 aeroports (METAR i TAF).

Les estacions disponibles són els punts grocs i vermells al mapa.

Posi el ratolí al punt desitjat per veure el nom de l'estació.

Feu clic per veure les observacions i els pronòstics meteorològics.

Per canviar el mapa: feu clic els botons verds amb una creu de color negre per apropar; al botó verd amb un guió per allunyar la imatge; o en les fletxes verdes per a mapes adjacents.


METAR-TAF: